Terminal Aerodrome Forecast
Issued by NWS Jacksonville, FL

Home | Current Version | Previous Version | Text Only | Print | Product List | Glossary On
Versions: 1 2 3 4 5 6 7 8 9 10 11 12 13 14 15 16
000
FTUS42 KJAX 300200 AAA
TAFJAX
TAF AMD
KJAX 300212Z 3002/3024 09005KT P6SM SCT250
     FM300500 00000KT P6SM FEW250
     FM301500 11008KT P6SM SCT035
     FM302000 13010KT P6SM VCTS SCT020 BKN035CB BKN120=

USA.gov is the U.S. government's official web portal to all federal, state and local government web resources and services.